createdAt,value
2023-02-12T00:01:21.062Z,115.43
2023-02-12T00:03:49.527Z,110.30
2023-02-12T00:06:18.004Z,114.07
2023-02-12T00:08:46.346Z,112.70
2023-02-12T00:11:15.511Z,109.37
2023-02-12T00:13:43.977Z,129.40
2023-02-12T00:16:15.409Z,130.10
2023-02-12T00:18:43.805Z,128.03
2023-02-12T00:21:12.687Z,135.87
2023-02-12T00:23:42.096Z,129.43
2023-02-12T00:26:10.454Z,103.13
2023-02-12T00:28:39.135Z,131.03
2023-02-12T00:31:08.369Z,122.90
2023-02-12T00:33:38.290Z,134.93
2023-02-12T00:36:07.135Z,123.70
2023-02-12T00:38:35.605Z,118.87
2023-02-12T00:41:03.977Z,133.23
2023-02-12T00:43:32.212Z,117.43
2023-02-12T00:46:00.492Z,108.87
2023-02-12T00:48:28.762Z,123.07
2023-02-12T00:50:58.365Z,101.03
2023-02-12T00:53:26.708Z,109.57
2023-02-12T00:55:55.509Z,120.47
2023-02-12T00:58:24.398Z,105.37
2023-02-12T01:00:52.873Z,113.47
2023-02-12T01:03:21.179Z,115.13
2023-02-12T01:05:49.555Z,125.23
2023-02-12T01:08:19.272Z,111.37
2023-02-12T01:10:56.773Z,107.87
2023-02-12T01:13:25.580Z,112.67
2023-02-12T01:16:03.070Z,114.90
2023-02-12T01:18:34.154Z,108.10
2023-02-12T01:21:09.986Z,115.53
2023-02-12T01:23:39.648Z,129.10
2023-02-12T01:26:10.890Z,132.53
2023-02-12T01:28:39.463Z,114.73
2023-02-12T01:31:11.616Z,132.07
2023-02-12T01:33:41.126Z,133.50
2023-02-12T01:36:10.328Z,133.30
2023-02-12T01:38:39.980Z,137.40
2023-02-12T01:41:09.353Z,118.73
2023-02-12T01:43:38.325Z,124.87
2023-02-12T01:46:07.632Z,134.10
2023-02-12T01:48:38.004Z,133.30
2023-02-12T01:51:06.666Z,132.77
2023-02-12T01:53:36.990Z,116.93
2023-02-12T01:56:06.988Z,113.47
2023-02-12T01:58:37.345Z,129.00
2023-02-12T02:01:06.601Z,137.33
2023-02-12T02:03:35.671Z,103.30
2023-02-12T02:06:06.213Z,112.83
2023-02-12T02:08:35.130Z,131.90
2023-02-12T02:11:23.789Z,133.60
2023-02-12T02:14:11.307Z,124.00
2023-02-12T02:16:42.438Z,130.27
2023-02-12T02:19:14.818Z,128.80
2023-02-12T02:21:53.158Z,121.37
2023-02-12T02:24:36.403Z,143.17
2023-02-12T02:27:17.545Z,105.17
2023-02-12T02:29:59.728Z,117.27
2023-02-12T02:32:31.593Z,125.57
2023-02-12T02:35:02.600Z,117.67
2023-02-12T02:37:34.055Z,119.57
2023-02-12T02:40:07.361Z,120.97
2023-02-12T02:42:38.959Z,127.97
2023-02-12T02:45:10.617Z,119.03
2023-02-12T02:47:45.849Z,112.43
2023-02-12T02:50:15.529Z,113.90
2023-02-12T02:52:47.101Z,115.50
2023-02-12T02:55:16.435Z,100.30
2023-02-12T02:57:47.430Z,122.17
2023-02-12T03:00:18.462Z,103.70
2023-02-12T03:02:49.984Z,114.87
2023-02-12T03:05:20.986Z,119.53
2023-02-12T03:07:52.385Z,112.97
2023-02-12T03:10:22.181Z,115.27
2023-02-12T03:12:52.977Z,115.90
2023-02-12T03:15:24.735Z,103.83
2023-02-12T03:17:54.717Z,120.53
2023-02-12T03:20:24.545Z,109.37
2023-02-12T03:22:54.896Z,117.27
2023-02-12T03:25:24.933Z,120.80
2023-02-12T03:27:58.003Z,114.13
2023-02-12T03:30:31.234Z,114.57
2023-02-12T03:33:05.934Z,110.70
2023-02-12T03:35:35.825Z,113.13
2023-02-12T03:38:05.935Z,96.17
2023-02-12T03:40:36.082Z,97.90
2023-02-12T03:43:09.197Z,100.93
2023-02-12T03:45:42.085Z,111.37
2023-02-12T03:48:15.477Z,115.13
2023-02-12T03:50:46.558Z,111.27
2023-02-12T03:53:17.309Z,108.43
2023-02-12T03:55:47.742Z,107.87
2023-02-12T03:58:18.665Z,92.93
2023-02-12T04:00:47.091Z,101.90
2023-02-12T04:03:18.032Z,104.10
2023-02-12T04:05:46.272Z,98.90
2023-02-12T04:08:14.909Z,103.27
2023-02-12T04:10:47.833Z,97.23
2023-02-12T04:13:20.939Z,96.17
2023-02-12T04:16:00.982Z,111.90
2023-02-12T04:18:35.905Z,96.97
2023-02-12T04:21:08.730Z,110.63
2023-02-12T04:23:42.529Z,86.80
2023-02-12T04:26:12.822Z,110.00
2023-02-12T04:28:45.481Z,87.90
2023-02-12T04:31:15.069Z,96.00
2023-02-12T04:33:48.083Z,92.97
2023-02-12T04:36:18.616Z,90.63
2023-02-12T04:38:51.847Z,97.67
2023-02-12T04:41:20.255Z,107.90
2023-02-12T04:43:48.539Z,90.07
2023-02-12T04:46:16.828Z,104.60
2023-02-12T04:48:51.152Z,96.10
2023-02-12T04:51:20.299Z,99.10
2023-02-12T04:53:48.872Z,119.07
2023-02-12T04:56:17.427Z,90.57
2023-02-12T04:58:45.773Z,77.00
2023-02-12T05:01:14.294Z,78.90
2023-02-12T05:03:42.628Z,87.20
2023-02-12T05:06:12.370Z,88.57
2023-02-12T05:08:40.661Z,72.50
2023-02-12T05:11:10.676Z,76.67
2023-02-12T05:13:39.315Z,93.73
2023-02-12T05:16:08.379Z,91.80
2023-02-12T05:18:39.138Z,82.87
2023-02-12T05:21:07.504Z,81.90
2023-02-12T05:23:38.119Z,82.50
2023-02-12T05:26:07.327Z,85.23
2023-02-12T05:28:35.856Z,82.17
2023-02-12T05:31:04.548Z,72.90
2023-02-12T05:33:33.472Z,68.50
2023-02-12T05:36:05.047Z,79.90
2023-02-12T05:38:33.383Z,88.80
2023-02-12T05:41:06.864Z,88.47
2023-02-12T05:43:35.089Z,74.43
2023-02-12T05:46:04.112Z,75.10
2023-02-12T05:48:32.509Z,72.70
2023-02-12T05:51:04.369Z,85.77
2023-02-12T05:53:32.790Z,79.10
2023-02-12T05:56:13.436Z,77.20
2023-02-12T05:58:42.175Z,80.27
2023-02-12T06:01:14.479Z,73.87
2023-02-12T06:03:42.979Z,91.00
2023-02-12T06:06:11.487Z,74.00
2023-02-12T06:08:39.736Z,67.77
2023-02-12T06:11:09.102Z,79.60
2023-02-12T06:13:38.748Z,66.73
2023-02-12T06:16:07.581Z,85.90
2023-02-12T06:18:37.044Z,75.70
2023-02-12T06:21:05.428Z,79.43
2023-02-12T06:23:33.620Z,71.17
2023-02-12T06:26:01.884Z,66.63
2023-02-12T06:28:30.200Z,68.50
2023-02-12T06:30:59.912Z,54.80
2023-02-12T06:33:28.481Z,66.37
2023-02-12T06:35:58.052Z,67.03
2023-02-12T06:38:26.451Z,66.53
2023-02-12T06:40:54.771Z,66.97
2023-02-12T06:43:23.034Z,57.00
2023-02-12T06:45:51.309Z,62.93
2023-02-12T06:48:21.355Z,62.43
2023-02-12T06:50:49.621Z,66.23
2023-02-12T06:53:17.862Z,62.00
2023-02-12T06:55:46.092Z,60.00
2023-02-12T06:58:14.309Z,62.17
2023-02-12T07:00:42.557Z,65.33
2023-02-12T07:03:11.017Z,59.70
2023-02-12T07:05:42.875Z,68.07
2023-02-12T07:08:11.627Z,57.73
2023-02-12T07:10:39.886Z,62.47
2023-02-12T07:13:08.199Z,82.17
2023-02-12T07:15:40.165Z,59.37
2023-02-12T07:18:08.442Z,71.10
2023-02-12T07:20:36.794Z,66.47
2023-02-12T07:23:06.425Z,64.87
2023-02-12T07:25:35.637Z,75.53
2023-02-12T07:28:03.921Z,69.00
2023-02-12T07:30:32.414Z,66.47
2023-02-12T07:33:00.696Z,69.83
2023-02-12T07:35:28.912Z,66.87
2023-02-12T07:37:58.980Z,65.57
2023-02-12T07:40:28.574Z,69.57
2023-02-12T07:42:57.133Z,66.73
2023-02-12T07:45:26.252Z,66.37
2023-02-12T07:47:54.561Z,66.63
2023-02-12T07:50:22.889Z,60.50
2023-02-12T07:52:51.438Z,56.90
2023-02-12T07:55:20.895Z,70.20
2023-02-12T07:57:50.575Z,74.13
2023-02-12T08:00:19.314Z,61.87
2023-02-12T08:02:52.888Z,73.23
2023-02-12T08:05:27.146Z,72.07
2023-02-12T08:07:55.534Z,69.30
2023-02-12T08:10:23.789Z,68.53
2023-02-12T08:12:53.679Z,68.03
2023-02-12T08:15:21.996Z,80.33
2023-02-12T08:17:50.214Z,73.20
2023-02-12T08:20:18.548Z,70.97
2023-02-12T08:22:47.013Z,78.37
2023-02-12T08:25:15.360Z,78.77
2023-02-12T08:27:43.650Z,79.47
2023-02-12T08:30:15.495Z,76.93
2023-02-12T08:32:43.910Z,69.57
2023-02-12T08:35:12.225Z,72.73
2023-02-12T08:37:40.463Z,74.33
2023-02-12T08:40:09.378Z,78.17
2023-02-12T08:42:37.905Z,68.43
2023-02-12T08:45:06.991Z,60.60
2023-02-12T08:47:36.594Z,71.67
2023-02-12T08:50:05.131Z,70.27
2023-02-12T08:52:33.613Z,72.07
2023-02-12T08:55:02.579Z,74.93
2023-02-12T08:57:30.965Z,72.93
2023-02-12T08:59:59.294Z,91.40
2023-02-12T09:02:27.908Z,71.27
2023-02-12T09:04:57.722Z,69.83
2023-02-12T09:07:27.155Z,86.80
2023-02-12T09:09:55.449Z,67.50
2023-02-12T09:12:23.628Z,83.20
2023-02-12T09:14:52.148Z,79.60
2023-02-12T09:17:20.604Z,83.23
2023-02-12T09:19:48.876Z,71.87
2023-02-12T09:22:18.474Z,73.30
2023-02-12T09:24:46.762Z,77.30
2023-02-12T09:27:15.076Z,79.97
2023-02-12T09:29:43.354Z,55.87
2023-02-12T09:32:11.703Z,61.00
2023-02-12T09:34:40.096Z,68.27
2023-02-12T09:37:08.346Z,59.73
2023-02-12T09:39:38.017Z,55.00
2023-02-12T09:42:15.288Z,45.57
2023-02-12T09:44:46.797Z,74.17
2023-02-12T09:47:17.103Z,52.57
2023-02-12T09:49:51.977Z,71.27
2023-02-12T09:52:21.550Z,90.77
2023-02-12T09:54:51.450Z,94.60
2023-02-12T09:57:21.691Z,104.87
2023-02-12T09:59:52.953Z,55.47
2023-02-12T10:02:22.061Z,58.97
2023-02-12T10:05:00.658Z,62.70
2023-02-12T10:07:36.561Z,90.37
2023-02-12T10:10:12.452Z,83.10
2023-02-12T10:12:47.204Z,59.83
2023-02-12T10:15:18.841Z,59.93
2023-02-12T10:17:50.317Z,68.27
2023-02-12T10:20:33.530Z,53.70
2023-02-12T10:23:07.204Z,51.90
2023-02-12T10:25:40.116Z,53.20
2023-02-12T10:28:11.107Z,44.10
2023-02-12T10:30:42.985Z,51.83
2023-02-12T10:33:15.714Z,56.40
2023-02-12T10:35:46.508Z,82.30
2023-02-12T10:38:17.975Z,89.40
2023-02-12T10:40:47.760Z,69.63
2023-02-12T10:43:16.130Z,47.80
2023-02-12T10:45:45.750Z,86.63
2023-02-12T10:48:16.076Z,98.37
2023-02-12T10:50:52.049Z,62.37
2023-02-12T10:53:23.069Z,76.30
2023-02-12T10:56:06.019Z,69.13
2023-02-12T10:58:34.335Z,69.83
2023-02-12T11:01:17.509Z,74.90
2023-02-12T11:03:45.803Z,64.07
2023-02-12T11:06:15.849Z,85.27
2023-02-12T11:08:44.512Z,74.03
2023-02-12T11:11:15.624Z,57.43
2023-02-12T11:13:46.767Z,84.53
2023-02-12T11:16:17.125Z,105.43
2023-02-12T11:18:45.522Z,82.97
2023-02-12T11:21:14.730Z,109.47
2023-02-12T11:23:45.135Z,70.77
2023-02-12T11:26:27.041Z,52.90
2023-02-12T11:28:56.535Z,82.87
2023-02-12T11:31:25.952Z,98.67
2023-02-12T11:34:09.016Z,100.17
2023-02-12T11:36:38.585Z,74.77
2023-02-12T11:39:08.844Z,63.23
2023-02-12T11:41:39.918Z,86.80
2023-02-12T11:44:12.893Z,100.67
2023-02-12T11:46:42.084Z,85.03
2023-02-12T11:49:10.936Z,93.13
2023-02-12T11:51:39.483Z,75.03
2023-02-12T11:54:07.702Z,80.30
2023-02-12T11:56:45.022Z,50.57
2023-02-12T11:59:18.574Z,56.03
2023-02-12T12:01:47.643Z,83.20
2023-02-12T12:04:17.171Z,67.43
2023-02-12T12:06:48.275Z,81.40
2023-02-12T12:09:30.976Z,62.43
2023-02-12T12:12:04.903Z,69.90
2023-02-12T12:14:55.116Z,66.53
2023-02-12T12:17:43.527Z,78.17
2023-02-12T12:20:13.238Z,76.30
2023-02-12T12:22:45.907Z,72.33
2023-02-12T12:25:20.532Z,75.70
2023-02-12T12:28:06.162Z,72.30
2023-02-12T12:30:41.162Z,66.27
2023-02-12T12:33:15.160Z,79.07
2023-02-12T12:35:48.031Z,90.83
2023-02-12T12:38:21.046Z,67.90
2023-02-12T12:41:01.079Z,72.57
2023-02-12T12:43:37.500Z,82.07
2023-02-12T12:46:28.303Z,75.67
2023-02-12T12:49:14.598Z,81.07
2023-02-12T12:51:54.703Z,90.27
2023-02-12T12:54:30.810Z,85.20
2023-02-12T12:57:09.633Z,89.87
2023-02-12T13:00:03.809Z,75.07
2023-02-12T13:02:53.364Z,60.70
2023-02-12T13:05:31.580Z,98.50
2023-02-12T13:08:05.614Z,81.37
2023-02-12T13:10:35.914Z,45.87
2023-02-12T13:13:11.171Z,98.00
2023-02-12T13:15:41.362Z,92.10
2023-02-12T13:18:17.241Z,61.03
2023-02-12T13:20:49.749Z,64.43
2023-02-12T13:23:22.602Z,64.77
2023-02-12T13:25:56.599Z,55.57
2023-02-12T13:28:28.978Z,52.23
2023-02-12T13:30:58.174Z,59.33
2023-02-12T13:33:31.751Z,57.07
2023-02-12T13:36:03.014Z,57.90
2023-02-12T13:38:32.812Z,58.57
2023-02-12T13:41:05.369Z,57.53
2023-02-12T13:43:41.538Z,62.73
2023-02-12T13:46:13.892Z,67.37
2023-02-12T13:48:48.731Z,78.60
2023-02-12T13:51:20.119Z,54.53
2023-02-12T13:53:52.607Z,63.97
2023-02-12T13:56:30.049Z,58.77
2023-02-12T13:59:00.813Z,62.63
2023-02-12T14:01:40.038Z,51.67
2023-02-12T14:04:24.322Z,63.87
2023-02-12T14:06:54.594Z,55.20
2023-02-12T14:09:26.666Z,56.40
2023-02-12T14:11:55.516Z,56.77
2023-02-12T14:14:27.508Z,57.67
2023-02-12T14:16:55.773Z,63.53
2023-02-12T14:19:41.862Z,56.97
2023-02-12T14:22:14.182Z,56.67
2023-02-12T14:24:49.037Z,50.70
2023-02-12T14:27:21.743Z,58.37
2023-02-12T14:30:23.402Z,54.53
2023-02-12T14:32:58.432Z,51.93
2023-02-12T14:35:34.684Z,56.10
2023-02-12T14:38:04.129Z,44.93
2023-02-12T14:40:40.629Z,64.23
2023-02-12T14:43:29.614Z,59.43
2023-02-12T14:45:59.289Z,50.17
2023-02-12T14:48:41.557Z,50.57
2023-02-12T14:51:16.268Z,58.90
2023-02-12T14:53:46.339Z,55.87
2023-02-12T14:56:14.870Z,53.63
2023-02-12T14:58:45.483Z,62.87
2023-02-12T15:01:14.358Z,61.43
2023-02-12T15:03:44.666Z,53.50
2023-02-12T15:06:18.167Z,62.97
2023-02-12T15:08:47.669Z,58.57
2023-02-12T15:11:23.297Z,51.13
2023-02-12T15:13:55.379Z,49.87
2023-02-12T15:16:30.966Z,52.87
2023-02-12T15:19:02.055Z,62.70
2023-02-12T15:21:32.820Z,60.07
2023-02-12T15:24:05.561Z,58.70
2023-02-12T15:26:35.292Z,55.83
2023-02-12T15:29:04.524Z,59.33
2023-02-12T15:31:34.049Z,58.20
2023-02-12T15:34:04.045Z,53.77
2023-02-12T15:36:35.364Z,64.90
2023-02-12T15:39:04.999Z,59.77
2023-02-12T15:41:40.603Z,61.30
2023-02-12T15:44:22.539Z,51.60
2023-02-12T15:47:01.226Z,62.50
2023-02-12T15:49:31.265Z,59.47
2023-02-12T15:52:08.488Z,61.60
2023-02-12T15:54:39.463Z,64.03
2023-02-12T15:57:21.849Z,63.83
2023-02-12T15:59:53.879Z,54.77
2023-02-12T16:02:23.311Z,62.53
2023-02-12T16:04:51.815Z,58.97
2023-02-12T16:07:21.128Z,54.03
2023-02-12T16:09:53.748Z,58.83
2023-02-12T16:12:24.658Z,73.53
2023-02-12T16:14:54.168Z,56.17
2023-02-12T16:17:24.790Z,63.47
2023-02-12T16:19:57.317Z,58.17
2023-02-12T16:22:28.228Z,58.73
2023-02-12T16:24:57.976Z,57.30
2023-02-12T16:27:27.373Z,52.30
2023-02-12T16:29:56.825Z,50.03
2023-02-12T16:32:32.996Z,53.50
2023-02-12T16:35:02.272Z,46.10
2023-02-12T16:37:42.953Z,54.60
2023-02-12T16:40:26.605Z,44.00
2023-02-12T16:43:00.108Z,48.10
2023-02-12T16:45:38.550Z,44.57
2023-02-12T16:48:11.888Z,58.13
2023-02-12T16:50:46.005Z,59.03
2023-02-12T16:53:25.284Z,51.13
2023-02-12T16:55:54.033Z,69.40
2023-02-12T16:58:24.898Z,56.73
2023-02-12T17:00:53.487Z,47.60
2023-02-12T17:03:21.940Z,52.77
2023-02-12T17:05:52.013Z,45.73
2023-02-12T17:08:21.382Z,45.87
2023-02-12T17:10:49.845Z,50.30
2023-02-12T17:13:21.734Z,59.27
2023-02-12T17:15:55.893Z,53.87
2023-02-12T17:18:24.538Z,54.70
2023-02-12T17:20:55.179Z,50.87
2023-02-12T17:23:23.666Z,52.03
2023-02-12T17:25:52.367Z,49.27
2023-02-12T17:28:21.054Z,53.47
2023-02-12T17:30:49.458Z,52.87
2023-02-12T17:33:19.242Z,47.50
2023-02-12T17:35:47.621Z,48.87
2023-02-12T17:38:15.935Z,49.03
2023-02-12T17:40:44.162Z,42.17
2023-02-12T17:43:18.326Z,44.17
2023-02-12T17:45:46.817Z,43.90
2023-02-12T17:48:15.789Z,43.47
2023-02-12T17:50:46.515Z,41.67
2023-02-12T17:53:19.875Z,47.77
2023-02-12T17:55:48.224Z,42.67
2023-02-12T17:58:16.702Z,46.33
2023-02-12T18:00:44.990Z,46.00
2023-02-12T18:03:13.332Z,40.53
2023-02-12T18:05:46.901Z,47.20
2023-02-12T18:08:15.157Z,48.43
2023-02-12T18:10:43.486Z,42.87
2023-02-12T18:13:13.685Z,40.70
2023-02-12T18:15:42.150Z,40.77
2023-02-12T18:18:10.741Z,38.67
2023-02-12T18:20:41.073Z,41.30
2023-02-12T18:23:11.061Z,48.30
2023-02-12T18:25:42.204Z,40.43
2023-02-12T18:28:11.209Z,42.60
2023-02-12T18:30:42.937Z,44.37
2023-02-12T18:33:14.209Z,46.00
2023-02-12T18:35:43.032Z,39.97
2023-02-12T18:38:12.651Z,42.03
2023-02-12T18:40:41.745Z,38.50
2023-02-12T18:43:10.045Z,39.03
2023-02-12T18:45:40.664Z,37.40
2023-02-12T18:48:09.566Z,37.20
2023-02-12T18:50:38.540Z,39.10
2023-02-12T18:53:07.059Z,40.73
2023-02-12T18:55:38.581Z,36.57
2023-02-12T18:58:06.980Z,40.87
2023-02-12T19:00:35.368Z,36.90
2023-02-12T19:03:03.647Z,38.03
2023-02-12T19:05:32.598Z,35.17
2023-02-12T19:08:00.815Z,34.97
2023-02-12T19:10:29.344Z,31.80
2023-02-12T19:13:00.995Z,39.20
2023-02-12T19:15:29.595Z,39.67
2023-02-12T19:17:59.914Z,40.53
2023-02-12T19:20:28.126Z,31.40
2023-02-12T19:22:56.544Z,36.80
2023-02-12T19:25:39.656Z,38.23
2023-02-12T19:28:20.267Z,34.07
2023-02-12T19:30:48.577Z,36.77
2023-02-12T19:33:19.508Z,31.93
2023-02-12T19:35:50.683Z,32.67
2023-02-12T19:38:19.347Z,32.97
2023-02-12T19:40:47.649Z,31.47
2023-02-12T19:43:16.236Z,33.03
2023-02-12T19:45:45.917Z,32.80
2023-02-12T19:48:14.323Z,32.63
2023-02-12T19:50:47.322Z,36.30
2023-02-12T19:53:15.775Z,30.73
2023-02-12T19:55:43.983Z,32.07
2023-02-12T19:58:12.275Z,29.27
2023-02-12T20:00:40.552Z,37.17
2023-02-12T20:03:10.242Z,28.50
2023-02-12T20:05:44.891Z,28.87
2023-02-12T20:08:13.436Z,30.20
2023-02-12T20:10:41.991Z,35.77
2023-02-12T20:13:10.288Z,28.73
2023-02-12T20:15:38.993Z,34.70
2023-02-12T20:18:08.321Z,36.77
2023-02-12T20:20:37.959Z,26.17
2023-02-12T20:23:06.317Z,26.00
2023-02-12T20:25:34.531Z,28.67
2023-02-12T20:28:02.786Z,32.60
2023-02-12T20:30:31.032Z,24.50
2023-02-12T20:32:59.296Z,25.47
2023-02-12T20:35:29.536Z,30.37
2023-02-12T20:37:59.166Z,33.07
2023-02-12T20:40:27.458Z,27.73
2023-02-12T20:42:55.757Z,26.80
2023-02-12T20:45:24.264Z,25.27
2023-02-12T20:47:52.953Z,23.53
2023-02-12T20:50:21.348Z,25.73
2023-02-12T20:52:49.720Z,27.63
2023-02-12T20:55:19.572Z,28.57
2023-02-12T20:57:49.410Z,25.47
2023-02-12T21:00:18.183Z,27.90
2023-02-12T21:02:46.652Z,29.53
2023-02-12T21:05:14.874Z,28.10
2023-02-12T21:07:43.104Z,28.17
2023-02-12T21:10:11.725Z,24.13
2023-02-12T21:12:44.057Z,26.50
2023-02-12T21:15:13.349Z,21.77
2023-02-12T21:17:41.770Z,21.50
2023-02-12T21:20:10.310Z,25.90
2023-02-12T21:22:43.679Z,23.03
2023-02-12T21:25:21.025Z,27.87
2023-02-12T21:27:50.692Z,29.63
2023-02-12T21:30:19.237Z,21.17
2023-02-12T21:32:51.671Z,27.57
2023-02-12T21:35:19.893Z,27.60
2023-02-12T21:37:48.243Z,22.43
2023-02-12T21:40:17.771Z,22.90
2023-02-12T21:42:48.179Z,24.10
2023-02-12T21:45:19.560Z,24.77
2023-02-12T21:47:47.875Z,25.77
2023-02-12T21:50:16.494Z,29.47
2023-02-12T21:52:44.985Z,22.13
2023-02-12T21:55:13.193Z,28.83
2023-02-12T21:57:41.741Z,24.63
2023-02-12T22:00:12.243Z,20.67
2023-02-12T22:02:41.996Z,22.97
2023-02-12T22:05:10.758Z,24.33
2023-02-12T22:07:39.000Z,23.00
2023-02-12T22:10:08.250Z,26.03
2023-02-12T22:12:36.857Z,22.60
2023-02-12T22:15:05.291Z,26.20
2023-02-12T22:17:33.653Z,23.27
2023-02-12T22:20:03.717Z,18.97
2023-02-12T22:22:31.946Z,24.20
2023-02-12T22:25:00.268Z,20.63
2023-02-12T22:27:28.536Z,19.40
2023-02-12T22:29:57.097Z,21.90
2023-02-12T22:32:25.730Z,20.90
2023-02-12T22:34:54.194Z,20.97
2023-02-12T22:37:23.769Z,23.93
2023-02-12T22:39:52.305Z,26.20
2023-02-12T22:42:20.949Z,19.93
2023-02-12T22:44:49.203Z,23.77
2023-02-12T22:47:17.479Z,23.23
2023-02-12T22:49:45.846Z,19.70
2023-02-12T22:52:14.109Z,25.73
2023-02-12T22:54:43.747Z,23.50
2023-02-12T22:57:11.998Z,27.07
2023-02-12T22:59:40.241Z,21.73
2023-02-12T23:02:08.470Z,26.53
2023-02-12T23:04:37.575Z,20.80
2023-02-12T23:07:06.134Z,21.73
2023-02-12T23:09:34.416Z,28.43
2023-02-12T23:12:07.420Z,26.67
2023-02-12T23:14:36.249Z,19.43
2023-02-12T23:17:04.955Z,22.20
2023-02-12T23:19:33.438Z,21.80
2023-02-12T23:22:02.183Z,18.87
2023-02-12T23:24:30.376Z,18.93
2023-02-12T23:26:58.694Z,25.43
2023-02-12T23:29:28.344Z,20.77
2023-02-12T23:31:56.626Z,19.73
2023-02-12T23:34:24.919Z,22.13
2023-02-12T23:36:53.200Z,22.07
2023-02-12T23:39:21.472Z,24.10
2023-02-12T23:41:49.763Z,21.53
2023-02-12T23:44:18.019Z,19.97
2023-02-12T23:46:51.902Z,19.30
2023-02-12T23:49:20.209Z,21.87
2023-02-12T23:51:48.440Z,22.20
2023-02-12T23:54:16.997Z,20.53
2023-02-12T23:56:45.425Z,20.13
2023-02-12T23:59:13.650Z,22.20
